createdAt,value
2023-04-27T00:01:25.747Z,4.85
2023-04-27T00:03:28.499Z,5.20
2023-04-27T00:05:48.914Z,5.78
2023-04-27T00:07:50.408Z,5.10
2023-04-27T00:09:54.359Z,6.03
2023-04-27T00:11:55.896Z,6.88
2023-04-27T00:13:57.315Z,5.18
2023-04-27T00:18:23.489Z,5.80
2023-04-27T00:22:29.112Z,5.30
2023-04-27T00:24:30.542Z,6.35
2023-04-27T00:26:34.931Z,6.15
2023-04-27T00:28:39.187Z,6.07
2023-04-27T00:30:44.996Z,6.32
2023-04-27T00:33:05.990Z,5.88
2023-04-27T00:35:26.081Z,6.10
2023-04-27T00:37:27.728Z,6.03
2023-04-27T00:39:47.955Z,6.50
2023-04-27T00:42:15.160Z,6.50
2023-04-27T00:44:26.263Z,6.88
2023-04-27T00:46:30.930Z,5.47
2023-04-27T00:48:35.630Z,5.90
2023-04-27T00:50:39.808Z,5.07
2023-04-27T00:52:41.745Z,6.90
2023-04-27T00:54:43.359Z,5.85
2023-04-27T00:56:48.574Z,5.35
2023-04-27T00:58:50.091Z,6.50
2023-04-27T01:00:54.436Z,5.88
2023-04-27T01:02:59.133Z,5.07
2023-04-27T01:05:03.866Z,6.00
2023-04-27T01:07:11.921Z,5.85
2023-04-27T01:09:25.907Z,5.50
2023-04-27T01:11:39.577Z,5.80
2023-04-27T01:13:48.015Z,5.10
2023-04-27T01:16:00.855Z,5.43
2023-04-27T01:18:11.462Z,6.20
2023-04-27T01:20:21.165Z,5.78
2023-04-27T01:22:30.755Z,8.57
2023-04-27T01:24:40.946Z,6.82
2023-04-27T01:26:50.673Z,6.30
2023-04-27T01:29:03.464Z,7.40
2023-04-27T01:31:16.765Z,7.45
2023-04-27T01:33:44.137Z,6.88
2023-04-27T01:35:55.328Z,7.50
2023-04-27T01:38:05.924Z,7.05
2023-04-27T01:40:13.842Z,7.50
2023-04-27T01:42:19.712Z,7.82
2023-04-27T01:44:22.953Z,8.00
2023-04-27T01:46:24.435Z,7.43
2023-04-27T01:48:29.122Z,8.40
2023-04-27T01:50:33.502Z,7.95
2023-04-27T01:52:53.636Z,7.97
2023-04-27T01:54:55.120Z,8.18
2023-04-27T01:59:00.606Z,9.52
2023-04-27T02:01:20.584Z,7.60
2023-04-27T02:03:40.623Z,9.15
2023-04-27T02:05:42.299Z,8.85
2023-04-27T02:07:43.729Z,7.57
2023-04-27T02:09:51.067Z,7.40
2023-04-27T02:11:52.503Z,8.52
2023-04-27T02:15:57.989Z,8.20
2023-04-27T02:17:59.637Z,9.02
2023-04-27T02:20:06.897Z,7.97
2023-04-27T02:22:11.126Z,7.97
2023-04-27T02:24:31.314Z,9.90
2023-04-27T02:28:36.837Z,8.48
2023-04-27T02:30:38.564Z,10.18
2023-04-27T02:32:44.126Z,9.07
2023-04-27T02:34:51.496Z,9.43
2023-04-27T02:36:58.912Z,9.75
2023-04-27T02:39:00.411Z,10.30
2023-04-27T02:41:02.046Z,9.65
2023-04-27T02:43:03.937Z,10.38
2023-04-27T02:45:08.440Z,10.07
2023-04-27T02:47:10.157Z,8.52
2023-04-27T02:49:15.803Z,9.93
2023-04-27T02:51:17.558Z,10.97
2023-04-27T02:53:19.026Z,10.75
2023-04-27T02:55:21.487Z,11.45
2023-04-27T02:57:25.795Z,10.52
2023-04-27T02:59:30.068Z,9.90
2023-04-27T03:01:50.468Z,11.43
2023-04-27T03:03:52.185Z,12.65
2023-04-27T03:05:54.027Z,12.95
2023-04-27T03:08:14.186Z,12.50
2023-04-27T03:10:15.782Z,13.63
2023-04-27T03:12:17.244Z,13.15
2023-04-27T03:14:24.896Z,14.43
2023-04-27T03:16:29.029Z,14.50
2023-04-27T03:18:37.136Z,14.52
2023-04-27T03:20:41.356Z,14.88
2023-04-27T03:22:45.915Z,15.30
2023-04-27T03:24:50.184Z,14.52
2023-04-27T03:27:10.242Z,15.05
2023-04-27T03:29:14.892Z,14.20
2023-04-27T03:31:19.276Z,18.10
2023-04-27T03:33:23.894Z,15.73
2023-04-27T03:35:25.603Z,17.13
2023-04-27T03:37:30.076Z,16.88
2023-04-27T03:39:34.498Z,17.65
2023-04-27T03:43:40.018Z,15.13
2023-04-27T03:45:44.350Z,16.75
2023-04-27T03:47:45.957Z,18.15
2023-04-27T03:49:47.465Z,17.20
2023-04-27T03:51:49.003Z,18.95
2023-04-27T03:53:53.351Z,15.95
2023-04-27T03:56:01.958Z,16.33
2023-04-27T03:58:03.373Z,18.05
2023-04-27T04:00:07.916Z,16.45
2023-04-27T04:02:09.627Z,19.35
2023-04-27T04:04:11.521Z,17.38
2023-04-27T04:06:17.191Z,17.40
2023-04-27T04:08:21.296Z,17.77
2023-04-27T04:10:43.368Z,16.30
2023-04-27T04:12:55.343Z,16.75
2023-04-27T04:15:05.796Z,16.08
2023-04-27T04:17:09.528Z,15.63
2023-04-27T04:19:16.229Z,17.15
2023-04-27T04:21:18.229Z,17.25
2023-04-27T04:23:24.478Z,17.63
2023-04-27T04:25:28.889Z,17.02
2023-04-27T04:27:33.184Z,17.13
2023-04-27T04:29:40.472Z,16.45
2023-04-27T04:31:46.485Z,16.40
2023-04-27T04:33:52.619Z,17.02
2023-04-27T04:36:04.591Z,16.25
2023-04-27T04:38:07.669Z,15.93
2023-04-27T04:40:12.834Z,16.20
2023-04-27T04:42:33.357Z,15.90
2023-04-27T04:44:37.484Z,15.65
2023-04-27T04:46:42.484Z,16.40
2023-04-27T04:48:44.315Z,17.38
2023-04-27T04:50:48.935Z,17.02
2023-04-27T04:52:53.614Z,15.65
2023-04-27T04:54:55.145Z,15.68
2023-04-27T04:57:03.590Z,16.23
2023-04-27T04:59:08.135Z,17.70
2023-04-27T05:01:28.434Z,15.63
2023-04-27T05:03:30.368Z,15.45
2023-04-27T05:05:34.076Z,15.50
2023-04-27T05:07:54.584Z,18.40
2023-04-27T05:09:56.397Z,16.92
2023-04-27T05:12:01.871Z,16.80
2023-04-27T05:14:03.677Z,15.50
2023-04-27T05:16:08.166Z,16.77
2023-04-27T05:18:12.217Z,16.85
2023-04-27T05:20:16.674Z,17.55
2023-04-27T05:22:18.112Z,18.13
2023-04-27T05:24:38.555Z,18.23
2023-04-27T05:26:40.097Z,17.27
2023-04-27T05:28:41.729Z,15.93
2023-04-27T05:30:45.891Z,16.58
2023-04-27T05:32:50.584Z,16.27
2023-04-27T05:34:55.068Z,16.80
2023-04-27T05:36:59.148Z,15.85
2023-04-27T05:39:00.974Z,14.75
2023-04-27T05:41:02.615Z,15.35
2023-04-27T05:43:23.297Z,14.73
2023-04-27T05:45:43.168Z,14.90
2023-04-27T05:47:44.635Z,16.15
2023-04-27T05:51:53.635Z,15.25
2023-04-27T05:53:55.476Z,15.73
2023-04-27T05:55:59.017Z,13.55
2023-04-27T05:58:08.383Z,15.15
2023-04-27T06:00:11.253Z,15.25
2023-04-27T06:02:31.852Z,14.73
2023-04-27T06:04:33.478Z,15.10
2023-04-27T06:06:37.784Z,13.73
2023-04-27T06:08:39.909Z,12.93
2023-04-27T06:11:00.192Z,14.35
2023-04-27T06:15:09.454Z,13.68
2023-04-27T06:17:13.726Z,12.68
2023-04-27T06:19:15.629Z,12.68
2023-04-27T06:21:20.153Z,13.60
2023-04-27T06:23:21.880Z,12.23
2023-04-27T06:25:41.894Z,13.02
2023-04-27T06:27:44.396Z,11.60
2023-04-27T06:29:48.738Z,11.05
2023-04-27T06:31:53.257Z,10.93
2023-04-27T06:33:54.788Z,12.18
2023-04-27T06:36:00.648Z,10.85
2023-04-27T06:38:02.155Z,12.13
2023-04-27T06:40:06.964Z,11.45
2023-04-27T06:42:11.569Z,10.68
2023-04-27T06:44:18.735Z,9.63
2023-04-27T06:46:20.835Z,10.73
2023-04-27T06:48:25.456Z,10.57
2023-04-27T06:50:30.515Z,10.30
2023-04-27T06:52:33.213Z,9.32
2023-04-27T06:54:54.295Z,10.02
2023-04-27T06:56:58.701Z,9.65
2023-04-27T06:59:19.111Z,9.10
2023-04-27T07:01:20.800Z,10.40
2023-04-27T07:03:22.558Z,9.82
2023-04-27T07:05:42.829Z,9.70
2023-04-27T07:07:44.368Z,10.20
2023-04-27T07:09:45.958Z,8.85
2023-04-27T07:11:50.024Z,9.80
2023-04-27T07:16:15.399Z,8.98
2023-04-27T07:18:17.396Z,9.32
2023-04-27T07:20:21.692Z,9.35
2023-04-27T07:22:26.688Z,9.18
2023-04-27T07:24:30.100Z,9.75
2023-04-27T07:26:52.169Z,8.68
2023-04-27T07:29:26.640Z,8.45
2023-04-27T07:31:34.140Z,9.15
2023-04-27T07:33:38.810Z,8.18
2023-04-27T07:35:43.103Z,8.82
2023-04-27T07:37:46.831Z,7.50
2023-04-27T07:39:51.464Z,10.68
2023-04-27T07:41:57.717Z,8.82
2023-04-27T07:44:04.238Z,8.20
2023-04-27T07:46:08.770Z,9.05
2023-04-27T07:50:16.982Z,8.10
2023-04-27T07:52:20.680Z,9.10
2023-04-27T07:54:26.852Z,8.48
2023-04-27T07:56:28.581Z,8.40
2023-04-27T08:00:34.049Z,8.68
2023-04-27T08:02:35.823Z,9.90
2023-04-27T08:04:41.213Z,7.70
2023-04-27T08:06:43.422Z,8.80
2023-04-27T08:08:45.048Z,9.43
2023-04-27T08:10:46.585Z,8.95
2023-04-27T08:12:48.114Z,8.70
2023-04-27T08:14:49.705Z,9.27
2023-04-27T08:16:52.184Z,8.80
2023-04-27T08:18:53.612Z,10.43
2023-04-27T08:20:55.570Z,10.05
2023-04-27T08:22:57.345Z,10.15
2023-04-27T08:24:59.432Z,8.80
2023-04-27T08:27:03.777Z,8.13
2023-04-27T08:29:19.552Z,8.13
2023-04-27T08:31:31.181Z,9.60
2023-04-27T08:33:38.620Z,9.25
2023-04-27T08:35:43.092Z,8.75
2023-04-27T08:37:44.529Z,9.80
2023-04-27T08:39:46.912Z,9.27
2023-04-27T08:41:51.634Z,9.52
2023-04-27T08:43:53.930Z,8.73
2023-04-27T08:45:58.167Z,9.73
2023-04-27T08:47:59.841Z,10.13
2023-04-27T08:50:04.586Z,8.68
2023-04-27T08:52:13.729Z,9.40
2023-04-27T08:54:19.321Z,9.38
2023-04-27T08:56:23.352Z,6.97
2023-04-27T09:00:38.551Z,8.95
2023-04-27T09:02:47.529Z,10.02
2023-04-27T09:04:52.148Z,8.60
2023-04-27T09:06:56.402Z,9.20
2023-04-27T09:08:58.078Z,9.02
2023-04-27T09:11:02.082Z,8.43
2023-04-27T09:13:03.822Z,8.15
2023-04-27T09:15:09.323Z,9.15
2023-04-27T09:17:10.969Z,8.18
2023-04-27T09:19:31.631Z,9.68
2023-04-27T09:21:33.503Z,9.02
2023-04-27T09:23:36.446Z,10.00
2023-04-27T09:25:37.940Z,9.23
2023-04-27T09:27:39.467Z,10.43
2023-04-27T09:29:40.937Z,10.32
2023-04-27T09:33:54.754Z,9.55
2023-04-27T09:35:57.377Z,8.77
2023-04-27T09:37:59.192Z,9.63
2023-04-27T09:40:02.096Z,8.98
2023-04-27T09:42:06.488Z,10.25
2023-04-27T09:44:08.452Z,9.57
2023-04-27T09:46:13.706Z,10.35
2023-04-27T09:48:34.140Z,9.90
2023-04-27T09:50:38.030Z,9.25
2023-04-27T09:52:39.803Z,10.02
2023-04-27T09:54:44.228Z,9.13
2023-04-27T09:56:48.342Z,10.13
2023-04-27T09:59:01.145Z,10.40
2023-04-27T10:01:26.410Z,10.48
2023-04-27T10:04:16.274Z,10.00
2023-04-27T10:06:20.818Z,8.52
2023-04-27T10:08:41.910Z,9.38
2023-04-27T10:10:48.020Z,9.80
2023-04-27T10:12:56.277Z,10.23
2023-04-27T10:15:01.005Z,9.75
2023-04-27T10:17:10.964Z,8.80
2023-04-27T10:19:13.051Z,8.98
2023-04-27T10:21:14.684Z,9.63
2023-04-27T10:23:26.132Z,10.77
2023-04-27T10:25:36.910Z,9.70
2023-04-27T10:27:51.131Z,8.88
2023-04-27T10:30:12.658Z,9.95
2023-04-27T10:32:26.380Z,9.25
2023-04-27T10:34:28.022Z,9.93
2023-04-27T10:36:37.227Z,10.43
2023-04-27T10:38:40.238Z,10.18
2023-04-27T10:40:43.850Z,9.18
2023-04-27T10:42:46.134Z,9.60
2023-04-27T10:44:54.314Z,10.02
2023-04-27T10:46:56.799Z,9.80
2023-04-27T10:48:58.605Z,10.85
2023-04-27T10:51:01.305Z,10.27
2023-04-27T10:53:04.079Z,9.77
2023-04-27T10:55:16.588Z,10.93
2023-04-27T10:57:20.979Z,10.55
2023-04-27T10:59:22.416Z,11.15
2023-04-27T11:01:24.931Z,11.05
2023-04-27T11:03:29.600Z,10.80
2023-04-27T11:05:59.399Z,10.85
2023-04-27T11:08:05.449Z,11.25
2023-04-27T11:10:09.954Z,12.00
2023-04-27T11:12:12.619Z,11.88
2023-04-27T11:14:20.582Z,11.70
2023-04-27T11:16:25.026Z,11.25
2023-04-27T11:18:33.059Z,11.55
2023-04-27T11:20:37.459Z,11.38
2023-04-27T11:22:57.660Z,11.75
2023-04-27T11:27:03.259Z,11.07
2023-04-27T11:29:12.352Z,11.18
2023-04-27T11:31:16.907Z,11.13
2023-04-27T11:33:22.287Z,10.70
2023-04-27T11:35:45.218Z,10.63
2023-04-27T11:37:58.286Z,9.95
2023-04-27T11:40:23.945Z,11.13
2023-04-27T11:42:34.872Z,10.27
2023-04-27T11:44:43.846Z,11.40
2023-04-27T11:46:50.851Z,10.05
2023-04-27T11:49:07.023Z,11.00
2023-04-27T11:51:40.063Z,10.75
2023-04-27T11:54:01.647Z,10.10
2023-04-27T11:56:25.377Z,9.80
2023-04-27T11:58:52.214Z,10.10
2023-04-27T12:00:57.829Z,10.85
2023-04-27T12:03:03.475Z,10.32
2023-04-27T12:05:09.731Z,10.82
2023-04-27T12:07:14.648Z,10.38
2023-04-27T12:09:18.653Z,10.32
2023-04-27T12:11:24.043Z,11.15
2023-04-27T12:13:28.556Z,10.23
2023-04-27T12:15:29.951Z,11.27
2023-04-27T12:19:38.370Z,10.32
2023-04-27T12:21:42.854Z,10.38
2023-04-27T12:23:47.224Z,12.30
2023-04-27T12:25:51.983Z,11.05
2023-04-27T12:27:56.427Z,11.02
2023-04-27T12:29:59.455Z,11.13
2023-04-27T12:32:03.872Z,10.88
2023-04-27T12:34:08.095Z,11.18
2023-04-27T12:36:12.523Z,11.68
2023-04-27T12:38:13.989Z,12.32
2023-04-27T12:40:18.158Z,10.95
2023-04-27T12:42:24.158Z,13.40
2023-04-27T12:44:28.471Z,10.55
2023-04-27T12:46:32.911Z,9.90
2023-04-27T12:48:34.805Z,10.07
2023-04-27T12:50:39.461Z,11.60
2023-04-27T12:52:40.880Z,10.65
2023-04-27T12:54:45.208Z,10.40
2023-04-27T12:56:49.827Z,11.18
2023-04-27T12:58:51.252Z,10.82
2023-04-27T13:00:52.958Z,10.88
2023-04-27T13:02:58.537Z,10.25
2023-04-27T13:05:07.902Z,10.20
2023-04-27T13:07:12.384Z,11.68
2023-04-27T13:09:16.804Z,11.50
2023-04-27T13:11:21.395Z,11.60
2023-04-27T13:13:25.645Z,11.80
2023-04-27T13:15:29.888Z,11.40
2023-04-27T13:17:50.137Z,11.88
2023-04-27T13:19:51.618Z,11.15
2023-04-27T13:21:56.627Z,11.63
2023-04-27T13:24:00.135Z,10.98
2023-04-27T13:26:02.290Z,10.98
2023-04-27T13:28:03.756Z,10.52
2023-04-27T13:30:07.708Z,10.88
2023-04-27T13:32:16.040Z,13.48
2023-04-27T13:34:36.101Z,10.85
2023-04-27T13:38:46.561Z,11.90
2023-04-27T13:41:06.765Z,11.52
2023-04-27T13:43:08.307Z,11.77
2023-04-27T13:45:12.614Z,12.52
2023-04-27T13:47:16.576Z,13.15
2023-04-27T13:49:17.976Z,14.50
2023-04-27T13:51:19.505Z,13.75
2023-04-27T13:53:21.022Z,18.10
2023-04-27T13:55:22.508Z,21.15
2023-04-27T13:57:23.943Z,21.85
2023-04-27T13:59:27.896Z,26.52
2023-04-27T14:01:48.172Z,31.65
2023-04-27T14:04:03.807Z,35.13
2023-04-27T14:06:26.128Z,27.60
2023-04-27T14:08:47.638Z,29.17
2023-04-27T14:11:27.761Z,38.72
2023-04-27T14:14:01.909Z,34.42
2023-04-27T14:16:09.701Z,28.00
2023-04-27T14:18:40.286Z,24.92
2023-04-27T14:21:13.539Z,23.25
2023-04-27T14:23:36.128Z,24.33
2023-04-27T14:25:57.923Z,25.75
2023-04-27T14:28:04.711Z,29.52
2023-04-27T14:30:29.883Z,26.73
2023-04-27T14:32:34.057Z,27.60
2023-04-27T14:34:38.575Z,28.70
2023-04-27T14:36:43.276Z,28.30
2023-04-27T14:38:47.657Z,28.35
2023-04-27T14:40:51.953Z,29.73
2023-04-27T14:43:11.798Z,35.80
2023-04-27T14:45:17.399Z,32.40
2023-04-27T14:47:21.782Z,31.55
2023-04-27T14:49:26.235Z,33.90
2023-04-27T14:51:32.346Z,28.25
2023-04-27T14:53:36.913Z,28.30
2023-04-27T14:55:43.290Z,30.17
2023-04-27T14:57:44.794Z,26.45
2023-04-27T14:59:46.312Z,22.25
2023-04-27T15:01:47.865Z,25.58
2023-04-27T15:03:51.254Z,24.90
2023-04-27T15:05:55.943Z,27.33
2023-04-27T15:07:57.411Z,27.83
2023-04-27T15:09:58.853Z,30.27
2023-04-27T15:14:05.485Z,26.33
2023-04-27T15:16:09.878Z,27.48
2023-04-27T15:18:30.013Z,29.70
2023-04-27T15:20:34.155Z,30.23
2023-04-27T15:24:39.597Z,29.80
2023-04-27T15:26:43.870Z,27.92
2023-04-27T15:28:48.188Z,29.35
2023-04-27T15:30:49.983Z,28.20
2023-04-27T15:32:54.807Z,26.88
2023-04-27T15:34:59.103Z,26.75
2023-04-27T15:37:03.734Z,25.88
2023-04-27T15:39:24.046Z,27.20
2023-04-27T15:41:25.570Z,23.85
2023-04-27T15:43:46.021Z,27.42
2023-04-27T15:45:47.656Z,25.35
2023-04-27T15:47:49.474Z,25.77
2023-04-27T15:49:57.350Z,22.35
2023-04-27T15:54:19.872Z,26.63
2023-04-27T15:58:26.797Z,25.25
2023-04-27T16:00:31.317Z,26.27
2023-04-27T16:02:36.524Z,25.25
2023-04-27T16:04:38.162Z,26.85
2023-04-27T16:06:42.473Z,27.48
2023-04-27T16:08:46.604Z,28.27
2023-04-27T16:10:49.001Z,27.55
2023-04-27T16:12:53.289Z,27.67
2023-04-27T16:14:57.376Z,27.08
2023-04-27T16:21:06.200Z,28.52
2023-04-27T16:23:07.958Z,27.13
2023-04-27T16:25:12.233Z,27.23
2023-04-27T16:27:14.037Z,25.30
2023-04-27T16:29:15.686Z,28.70
2023-04-27T16:31:20.577Z,26.75
2023-04-27T16:35:30.222Z,23.52
2023-04-27T16:37:34.015Z,23.27
2023-04-27T16:39:40.427Z,25.42
2023-04-27T16:42:01.889Z,24.42
2023-04-27T16:44:05.726Z,25.58
2023-04-27T16:46:12.595Z,25.80
2023-04-27T16:48:18.777Z,22.27
2023-04-27T16:50:22.937Z,24.48
2023-04-27T16:52:29.802Z,23.52
2023-04-27T16:54:33.787Z,24.10
2023-04-27T16:56:38.144Z,22.80
2023-04-27T16:58:44.571Z,25.45
2023-04-27T17:00:51.182Z,24.15
2023-04-27T17:02:54.441Z,23.02
2023-04-27T17:05:00.666Z,22.25
2023-04-27T17:07:11.063Z,22.95
2023-04-27T17:09:16.343Z,25.10
2023-04-27T17:11:38.638Z,23.85
2023-04-27T17:13:42.433Z,24.90
2023-04-27T17:15:49.715Z,23.02
2023-04-27T17:19:55.358Z,24.63
2023-04-27T17:21:59.947Z,24.63
2023-04-27T17:24:04.288Z,25.70
2023-04-27T17:26:09.906Z,26.67
2023-04-27T17:28:11.458Z,26.45
2023-04-27T17:30:13.133Z,27.30
2023-04-27T17:32:14.938Z,28.30
2023-04-27T17:34:19.020Z,28.15
2023-04-27T17:36:20.636Z,32.80
2023-04-27T17:38:25.014Z,30.48
2023-04-27T17:40:30.990Z,29.23
2023-04-27T17:42:35.538Z,28.60
2023-04-27T17:44:39.327Z,27.75
2023-04-27T17:46:47.835Z,27.20
2023-04-27T17:48:49.680Z,29.13
2023-04-27T17:50:54.217Z,27.98
2023-04-27T17:52:55.821Z,28.40
2023-04-27T17:54:59.922Z,28.58
2023-04-27T17:57:04.441Z,30.38
2023-04-27T17:59:07.481Z,28.67
2023-04-27T18:01:10.345Z,28.77
2023-04-27T18:03:12.292Z,29.20
2023-04-27T18:05:14.105Z,29.35
2023-04-27T18:07:18.535Z,27.75
2023-04-27T18:09:20.200Z,29.90
2023-04-27T18:11:24.428Z,25.17
2023-04-27T18:13:27.070Z,28.73
2023-04-27T18:15:28.496Z,28.38
2023-04-27T18:17:29.949Z,28.95
2023-04-27T18:19:31.498Z,29.42
2023-04-27T18:21:33.022Z,29.08
2023-04-27T18:23:38.005Z,28.88
2023-04-27T18:25:58.356Z,28.00
2023-04-27T18:28:03.408Z,26.70
2023-04-27T18:30:08.379Z,25.60
2023-04-27T18:32:12.796Z,25.60
2023-04-27T18:34:14.434Z,26.75
2023-04-27T18:36:15.969Z,23.85
2023-04-27T18:38:17.386Z,19.75
2023-04-27T18:40:20.048Z,20.20
2023-04-27T18:42:24.546Z,16.02
2023-04-27T18:44:28.753Z,15.18
2023-04-27T18:46:30.387Z,15.52
2023-04-27T18:48:34.592Z,16.67
2023-04-27T18:50:36.081Z,13.63
2023-04-27T18:52:40.876Z,15.20
2023-04-27T18:54:45.018Z,16.20
2023-04-27T18:56:50.697Z,17.20
2023-04-27T18:58:53.281Z,17.52
2023-04-27T19:00:54.996Z,13.15
2023-04-27T19:02:56.758Z,14.55
2023-04-27T19:05:11.467Z,13.35
2023-04-27T19:07:14.759Z,13.43
2023-04-27T19:09:19.396Z,14.70
2023-04-27T19:11:25.455Z,12.82
2023-04-27T19:13:26.886Z,9.20
2023-04-27T19:15:28.480Z,9.50
2023-04-27T19:17:32.695Z,8.65
2023-04-27T19:19:34.201Z,7.95
2023-04-27T19:21:35.852Z,8.77
2023-04-27T19:23:40.370Z,8.60
2023-04-27T19:26:11.969Z,8.77
2023-04-27T19:30:16.605Z,8.63
2023-04-27T19:32:18.094Z,9.68
2023-04-27T19:34:19.908Z,9.18
2023-04-27T19:36:24.733Z,9.35
2023-04-27T19:38:26.337Z,9.50
2023-04-27T19:40:32.135Z,9.38
2023-04-27T19:42:33.797Z,10.02
2023-04-27T19:44:36.031Z,8.68
2023-04-27T19:46:40.198Z,8.90
2023-04-27T19:48:42.500Z,8.30
2023-04-27T19:51:02.527Z,8.00
2023-04-27T19:53:09.737Z,6.47
2023-04-27T19:55:11.535Z,6.57
2023-04-27T19:57:16.664Z,6.70
2023-04-27T19:59:18.616Z,8.80
2023-04-27T20:01:21.949Z,8.02
2023-04-27T20:03:26.326Z,6.60
2023-04-27T20:05:28.205Z,7.22
2023-04-27T20:07:32.506Z,6.03
2023-04-27T20:09:37.096Z,7.28
2023-04-27T20:11:41.291Z,8.00
2023-04-27T20:13:46.193Z,7.20
2023-04-27T20:15:47.719Z,7.30
2023-04-27T20:17:49.428Z,8.82
2023-04-27T20:19:57.041Z,6.35
2023-04-27T20:21:59.257Z,7.30
2023-04-27T20:24:05.028Z,7.85
2023-04-27T20:26:09.098Z,8.05
2023-04-27T20:28:30.473Z,7.93
2023-04-27T20:30:35.243Z,8.68
2023-04-27T20:32:39.370Z,7.32
2023-04-27T20:34:43.726Z,8.25
2023-04-27T20:36:48.257Z,8.27
2023-04-27T20:38:52.334Z,8.35
2023-04-27T20:41:11.772Z,8.45
2023-04-27T20:43:28.150Z,9.68
2023-04-27T20:45:48.496Z,8.75
2023-04-27T20:48:29.585Z,8.80
2023-04-27T20:50:41.290Z,9.15
2023-04-27T20:53:07.821Z,7.28
2023-04-27T20:55:36.909Z,9.82
2023-04-27T20:58:03.833Z,8.00
2023-04-27T21:00:18.474Z,7.22
2023-04-27T21:02:34.989Z,7.95
2023-04-27T21:04:48.595Z,7.25
2023-04-27T21:07:12.462Z,9.13
2023-04-27T21:09:16.816Z,7.38
2023-04-27T21:11:20.976Z,8.15
2023-04-27T21:13:25.467Z,8.95
2023-04-27T21:15:27.005Z,9.60
2023-04-27T21:17:31.310Z,9.55
2023-04-27T21:19:32.979Z,10.13
2023-04-27T21:21:34.664Z,10.68
2023-04-27T21:23:36.602Z,14.88
2023-04-27T21:25:38.129Z,11.80
2023-04-27T21:27:48.640Z,15.05
2023-04-27T21:30:09.098Z,12.25
2023-04-27T21:32:13.215Z,12.23
2023-04-27T21:34:14.962Z,12.63
2023-04-27T21:36:19.633Z,13.27
2023-04-27T21:38:21.127Z,12.80
2023-04-27T21:40:22.782Z,12.00
2023-04-27T21:42:42.604Z,9.88
2023-04-27T21:45:04.359Z,11.45
2023-04-27T21:47:08.652Z,11.57
2023-04-27T21:49:13.174Z,11.55
2023-04-27T21:51:14.601Z,10.10
2023-04-27T21:53:16.320Z,8.98
2023-04-27T21:55:17.880Z,9.48
2023-04-27T21:57:20.216Z,9.57
2023-04-27T21:59:21.793Z,9.77
2023-04-27T22:01:23.579Z,9.73
2023-04-27T22:03:25.215Z,9.50
2023-04-27T22:05:29.208Z,11.02
2023-04-27T22:07:33.501Z,11.60
2023-04-27T22:09:37.964Z,11.07
2023-04-27T22:11:42.230Z,12.82
2023-04-27T22:13:46.573Z,12.43
2023-04-27T22:15:48.188Z,11.32
2023-04-27T22:17:53.724Z,11.63
2023-04-27T22:19:55.293Z,9.60
2023-04-27T22:21:57.115Z,10.38
2023-04-27T22:24:01.375Z,10.48
2023-04-27T22:26:08.330Z,9.02
2023-04-27T22:28:29.120Z,10.23
2023-04-27T22:30:35.188Z,11.25
2023-04-27T22:32:36.611Z,11.73
2023-04-27T22:34:41.178Z,11.73
2023-04-27T22:36:42.666Z,11.82
2023-04-27T22:38:44.147Z,13.75
2023-04-27T22:41:03.924Z,14.40
2023-04-27T22:43:05.379Z,12.13
2023-04-27T22:45:25.024Z,13.77
2023-04-27T22:47:28.212Z,15.05
2023-04-27T22:49:32.694Z,16.23
2023-04-27T22:51:43.292Z,13.65
2023-04-27T22:54:10.152Z,13.60
2023-04-27T22:56:19.073Z,16.98
2023-04-27T22:58:28.758Z,18.52
2023-04-27T23:00:38.516Z,17.85
2023-04-27T23:02:47.533Z,15.82
2023-04-27T23:04:57.851Z,15.05
2023-04-27T23:07:10.418Z,14.57
2023-04-27T23:09:17.839Z,15.30
2023-04-27T23:11:44.005Z,14.63
2023-04-27T23:13:58.391Z,17.85
2023-04-27T23:16:13.066Z,15.65
2023-04-27T23:18:17.388Z,14.73
2023-04-27T23:20:28.544Z,9.90
2023-04-27T23:22:43.629Z,10.63
2023-04-27T23:26:53.523Z,13.02
2023-04-27T23:28:57.790Z,11.65
2023-04-27T23:30:59.258Z,10.05
2023-04-27T23:33:03.740Z,12.48
2023-04-27T23:35:11.025Z,11.35
2023-04-27T23:37:18.485Z,12.73
2023-04-27T23:39:20.329Z,13.07
2023-04-27T23:41:21.695Z,13.05
2023-04-27T23:43:23.175Z,10.98
2023-04-27T23:46:02.484Z,11.60
2023-04-27T23:48:23.167Z,9.27
2023-04-27T23:50:43.655Z,12.90
2023-04-27T23:52:47.879Z,12.07
2023-04-27T23:54:52.396Z,10.75
2023-04-27T23:56:53.904Z,9.93
2023-04-27T23:58:55.436Z,10.90
